createdAt,value
2017-10-11T00:01:50.518Z,12.73
2017-10-11T00:04:19.111Z,10.53
2017-10-11T00:06:47.353Z,10.40
2017-10-11T00:09:16.366Z,11.50
2017-10-11T00:11:44.645Z,11.87
2017-10-11T00:14:12.894Z,10.20
2017-10-11T00:16:41.905Z,10.83
2017-10-11T00:19:10.182Z,10.80
2017-10-11T00:21:38.434Z,10.87
2017-10-11T00:24:06.685Z,10.50
2017-10-11T00:26:35.460Z,9.17
2017-10-11T00:29:03.693Z,9.73
2017-10-11T00:31:31.941Z,9.90
2017-10-11T00:34:00.204Z,9.70
2017-10-11T00:36:28.452Z,9.70
2017-10-11T00:38:56.998Z,10.03
2017-10-11T00:41:26.033Z,10.20
2017-10-11T00:43:54.290Z,9.77
2017-10-11T00:46:22.537Z,9.60
2017-10-11T00:48:50.887Z,8.73
2017-10-11T00:51:19.162Z,9.60
2017-10-11T00:53:47.404Z,9.20
2017-10-11T00:56:15.657Z,8.90
2017-10-11T00:58:44.665Z,9.30
2017-10-11T01:01:12.910Z,9.17
2017-10-11T01:03:41.178Z,8.50
2017-10-11T01:06:09.413Z,8.77
2017-10-11T01:08:37.654Z,8.80
2017-10-11T01:11:06.492Z,8.57
2017-10-11T01:13:34.730Z,7.50
2017-10-11T01:16:02.982Z,8.80
2017-10-11T01:18:32.009Z,8.23
2017-10-11T01:21:00.250Z,7.83
2017-10-11T01:23:28.485Z,8.33
2017-10-11T01:25:56.762Z,8.67
2017-10-11T01:28:25.001Z,8.07
2017-10-11T01:30:53.998Z,7.97
2017-10-11T01:33:22.605Z,8.30
2017-10-11T01:35:50.841Z,8.53
2017-10-11T01:38:19.853Z,9.40
2017-10-11T01:40:48.341Z,8.17
2017-10-11T01:43:16.585Z,8.63
2017-10-11T01:45:44.842Z,8.30
2017-10-11T01:48:13.103Z,8.43
2017-10-11T01:50:41.341Z,8.63
2017-10-11T01:53:09.584Z,9.23
2017-10-11T01:55:38.049Z,9.27
2017-10-11T01:58:06.299Z,9.00
2017-10-11T02:00:34.534Z,9.13
2017-10-11T02:03:02.803Z,9.13
2017-10-11T02:05:32.991Z,8.07
2017-10-11T02:08:01.228Z,8.80
2017-10-11T02:10:29.503Z,9.40
2017-10-11T02:12:57.741Z,9.03
2017-10-11T02:15:25.977Z,8.30
2017-10-11T02:17:54.561Z,8.47
2017-10-11T02:20:22.802Z,8.80
2017-10-11T02:22:51.811Z,9.00
2017-10-11T02:25:20.076Z,8.93
2017-10-11T02:27:48.317Z,8.87
2017-10-11T02:30:16.559Z,8.27
2017-10-11T02:32:44.825Z,8.27
2017-10-11T02:35:13.061Z,7.60
2017-10-11T02:37:41.309Z,6.90
2017-10-11T02:40:10.074Z,6.57
2017-10-11T02:42:38.722Z,6.30
2017-10-11T02:45:07.744Z,8.50
2017-10-11T02:47:35.991Z,6.10
2017-10-11T02:50:04.226Z,5.63
2017-10-11T02:52:32.470Z,5.80
2017-10-11T02:55:00.734Z,5.27
2017-10-11T02:57:28.978Z,4.93
2017-10-11T02:59:57.209Z,5.80
2017-10-11T03:02:25.877Z,4.73
2017-10-11T03:04:54.127Z,4.37
2017-10-11T03:07:23.140Z,5.13
2017-10-11T03:09:51.400Z,4.10
2017-10-11T03:12:19.637Z,4.90
2017-10-11T03:14:47.869Z,4.60
2017-10-11T03:17:16.129Z,3.97
2017-10-11T03:19:44.370Z,3.87
2017-10-11T03:22:12.606Z,3.87
2017-10-11T03:24:41.201Z,4.20
2017-10-11T03:27:09.432Z,3.97
2017-10-11T03:29:37.677Z,4.20
2017-10-11T03:32:05.935Z,3.90
2017-10-11T03:34:34.173Z,3.67
2017-10-11T03:37:02.415Z,4.40
2017-10-11T03:39:30.674Z,3.57
2017-10-11T03:41:58.917Z,3.80
2017-10-11T03:44:27.587Z,4.13
2017-10-11T03:46:56.915Z,3.53
2017-10-11T03:49:25.153Z,3.20
2017-10-11T03:51:53.385Z,3.50
2017-10-11T03:54:21.656Z,4.40
2017-10-11T03:56:49.895Z,4.07
2017-10-11T03:59:18.140Z,4.17
2017-10-11T04:01:46.409Z,3.43
2017-10-11T04:04:16.726Z,4.00
2017-10-11T04:06:44.957Z,3.77
2017-10-11T04:09:13.343Z,3.97
2017-10-11T04:11:41.585Z,11.87
2017-10-11T04:14:09.826Z,3.50
2017-10-11T04:16:38.084Z,3.50
2017-10-11T04:19:06.325Z,3.83
2017-10-11T04:21:34.558Z,4.07
2017-10-11T04:24:02.824Z,4.23
2017-10-11T04:26:31.059Z,4.33
2017-10-11T04:28:59.293Z,4.30
2017-10-11T04:31:27.733Z,4.60
2017-10-11T04:33:55.971Z,4.70
2017-10-11T04:36:24.205Z,4.53
2017-10-11T04:38:52.466Z,4.60
2017-10-11T04:41:20.705Z,5.10
2017-10-11T04:43:48.952Z,5.60
2017-10-11T04:46:17.241Z,6.20
2017-10-11T04:48:45.485Z,5.97
2017-10-11T04:51:13.721Z,6.07
2017-10-11T04:53:43.126Z,6.77
2017-10-11T04:56:12.137Z,5.57
2017-10-11T04:58:40.383Z,5.50
2017-10-11T05:01:09.349Z,5.50
2017-10-11T05:03:37.628Z,6.47
2017-10-11T05:06:08.061Z,6.17
2017-10-11T05:08:36.324Z,6.97
2017-10-11T05:11:04.570Z,6.70
2017-10-11T05:13:32.801Z,6.50
2017-10-11T05:16:01.274Z,7.80
2017-10-11T05:18:29.540Z,6.20
2017-10-11T05:20:57.753Z,5.97
2017-10-11T05:23:26.785Z,7.40
2017-10-11T05:25:55.039Z,6.50
2017-10-11T05:28:24.040Z,5.97
2017-10-11T05:30:52.297Z,5.80
2017-10-11T05:33:21.306Z,5.77
2017-10-11T05:35:49.554Z,6.90
2017-10-11T05:38:19.054Z,7.73
2017-10-11T05:40:47.307Z,6.90
2017-10-11T05:43:15.530Z,5.73
2017-10-11T05:45:44.558Z,5.83
2017-10-11T05:48:12.990Z,5.37
2017-10-11T05:50:41.998Z,5.93
2017-10-11T05:53:11.030Z,6.77
2017-10-11T05:55:39.271Z,6.30
2017-10-11T05:58:08.274Z,6.03
2017-10-11T06:00:36.675Z,6.23
2017-10-11T06:03:04.915Z,5.60
2017-10-11T06:05:33.926Z,5.90
2017-10-11T06:08:02.185Z,6.13
2017-10-11T06:10:31.197Z,6.07
2017-10-11T06:12:59.445Z,6.40
2017-10-11T06:15:27.706Z,5.50
2017-10-11T06:17:55.946Z,5.40
2017-10-11T06:20:24.183Z,5.93
2017-10-11T06:22:52.733Z,6.13
2017-10-11T06:25:20.972Z,5.07
2017-10-11T06:27:49.230Z,4.87
2017-10-11T06:30:18.245Z,5.40
2017-10-11T06:32:46.487Z,5.10
2017-10-11T06:35:15.494Z,5.40
2017-10-11T06:37:43.758Z,6.70
2017-10-11T06:40:12.769Z,5.20
2017-10-11T06:42:41.010Z,4.73
2017-10-11T06:45:09.775Z,5.30
2017-10-11T06:47:37.993Z,5.90
2017-10-11T06:50:07.391Z,5.80
2017-10-11T06:52:36.409Z,5.90
2017-10-11T06:55:04.642Z,5.80
2017-10-11T06:57:32.881Z,5.50
2017-10-11T07:00:01.142Z,4.80
2017-10-11T07:02:29.378Z,4.70
2017-10-11T07:04:59.785Z,4.80
2017-10-11T07:07:28.241Z,4.70
2017-10-11T07:09:56.482Z,5.20
2017-10-11T07:12:25.493Z,4.40
2017-10-11T07:14:53.753Z,5.10
2017-10-11T07:17:22.758Z,4.87
2017-10-11T07:19:51.008Z,5.10
2017-10-11T07:22:20.042Z,5.10
2017-10-11T07:24:48.286Z,5.67
2017-10-11T07:27:16.576Z,5.20
2017-10-11T07:29:45.006Z,5.00
2017-10-11T07:32:14.014Z,4.47
2017-10-11T07:34:42.260Z,4.73
2017-10-11T07:37:10.521Z,5.20
2017-10-11T07:39:38.793Z,6.17
2017-10-11T07:42:07.046Z,5.10
2017-10-11T07:44:36.085Z,5.67
2017-10-11T07:47:04.334Z,4.03
2017-10-11T07:49:32.586Z,5.20
2017-10-11T07:52:01.526Z,5.60
2017-10-11T07:54:29.761Z,6.00
2017-10-11T07:56:58.765Z,6.10
2017-10-11T07:59:27.025Z,5.47
2017-10-11T08:01:56.033Z,5.60
2017-10-11T08:04:24.288Z,6.03
2017-10-11T08:06:52.550Z,5.50
2017-10-11T08:09:20.792Z,5.77
2017-10-11T08:11:49.026Z,6.00
2017-10-11T08:14:17.658Z,5.57
2017-10-11T08:16:45.890Z,4.23
2017-10-11T08:19:14.889Z,5.50
2017-10-11T08:21:43.919Z,4.20
2017-10-11T08:24:12.161Z,4.60
2017-10-11T08:26:41.166Z,4.90
2017-10-11T08:29:09.433Z,5.23
2017-10-11T08:31:37.701Z,5.30
2017-10-11T08:34:06.709Z,4.60
2017-10-11T08:36:35.419Z,5.47
2017-10-11T08:39:03.659Z,4.17
2017-10-11T08:41:32.676Z,4.67
2017-10-11T08:44:00.936Z,4.83
2017-10-11T08:46:29.941Z,4.13
2017-10-11T08:48:58.177Z,4.57
2017-10-11T08:51:26.441Z,4.23
2017-10-11T08:53:55.254Z,4.40
2017-10-11T08:56:23.703Z,4.70
2017-10-11T08:58:52.322Z,4.23
2017-10-11T09:01:21.326Z,3.50
2017-10-11T09:03:50.334Z,3.93
2017-10-11T09:06:18.604Z,3.67
2017-10-11T09:08:46.839Z,3.90
2017-10-11T09:11:15.082Z,3.20
2017-10-11T09:13:43.344Z,3.20
2017-10-11T09:16:11.586Z,3.43
2017-10-11T09:18:40.595Z,3.13
2017-10-11T09:21:09.931Z,3.60
2017-10-11T09:23:38.174Z,3.23
2017-10-11T09:26:07.186Z,2.67
2017-10-11T09:28:35.450Z,2.50
2017-10-11T09:31:03.692Z,2.83
2017-10-11T09:33:31.930Z,2.83
2017-10-11T09:36:00.197Z,2.57
2017-10-11T09:38:28.437Z,3.07
2017-10-11T09:40:57.811Z,2.37
2017-10-11T09:43:26.570Z,2.40
2017-10-11T09:45:54.801Z,2.60
2017-10-11T09:48:23.046Z,2.17
2017-10-11T09:50:51.301Z,2.00
2017-10-11T09:53:19.562Z,2.10
2017-10-11T09:55:48.122Z,2.20
2017-10-11T09:58:16.388Z,2.43
2017-10-11T10:00:44.737Z,2.50
2017-10-11T10:03:12.954Z,2.70
2017-10-11T10:05:41.301Z,2.37
2017-10-11T10:08:09.546Z,2.63
2017-10-11T10:10:37.785Z,2.07
2017-10-11T10:13:06.844Z,2.60
2017-10-11T10:15:35.094Z,2.17
2017-10-11T10:18:03.325Z,2.13
2017-10-11T10:20:31.586Z,2.20
2017-10-11T10:22:59.826Z,2.37
2017-10-11T10:25:28.058Z,2.27
2017-10-11T10:27:56.509Z,2.17
2017-10-11T10:30:24.759Z,2.70
2017-10-11T10:32:52.998Z,2.67
2017-10-11T10:35:22.027Z,2.30
2017-10-11T10:37:50.266Z,2.53
2017-10-11T10:40:18.498Z,2.17
2017-10-11T10:42:46.762Z,2.13
2017-10-11T10:45:15.002Z,2.57
2017-10-11T10:47:43.234Z,2.10
2017-10-11T10:50:11.953Z,2.33
2017-10-11T10:52:40.217Z,2.50
2017-10-11T10:55:08.467Z,2.33
2017-10-11T10:57:37.013Z,2.60
2017-10-11T11:00:05.253Z,2.87
2017-10-11T11:02:34.265Z,2.30
2017-10-11T11:05:02.525Z,2.27
2017-10-11T11:07:30.757Z,1.90
2017-10-11T11:09:59.008Z,2.03
2017-10-11T11:12:27.613Z,2.00
2017-10-11T11:14:55.850Z,1.93
2017-10-11T11:17:24.853Z,2.17
2017-10-11T11:19:53.109Z,2.87
2017-10-11T11:22:21.352Z,2.43
2017-10-11T11:24:49.631Z,2.13
2017-10-11T11:27:17.878Z,2.70
2017-10-11T11:29:46.113Z,2.47
2017-10-11T11:32:15.122Z,2.10
2017-10-11T11:34:43.737Z,2.20
2017-10-11T11:37:11.993Z,2.37
2017-10-11T11:39:40.221Z,2.60
2017-10-11T11:42:08.595Z,1.97
2017-10-11T11:44:36.829Z,2.43
2017-10-11T11:47:05.061Z,1.70
2017-10-11T11:49:33.338Z,2.33
2017-10-11T11:52:01.569Z,2.70
2017-10-11T11:54:29.809Z,2.40
2017-10-11T11:56:59.367Z,1.97
2017-10-11T11:59:28.002Z,2.40
2017-10-11T12:01:57.004Z,2.33
2017-10-11T12:04:26.139Z,2.37
2017-10-11T12:06:54.415Z,1.97
2017-10-11T12:09:22.733Z,2.50
2017-10-11T12:11:51.175Z,1.70
2017-10-11T12:14:19.405Z,2.50
2017-10-11T12:16:48.462Z,2.13
2017-10-11T12:19:16.815Z,2.47
2017-10-11T12:21:45.073Z,2.03
2017-10-11T12:24:13.303Z,2.30
2017-10-11T12:26:41.592Z,1.97
2017-10-11T12:29:09.826Z,2.23
2017-10-11T12:31:38.079Z,2.57
2017-10-11T12:34:06.354Z,1.90
2017-10-11T12:36:34.629Z,2.27
2017-10-11T12:39:02.865Z,2.67
2017-10-11T12:41:31.445Z,2.30
2017-10-11T12:43:59.681Z,2.20
2017-10-11T12:46:27.926Z,2.27
2017-10-11T12:48:56.390Z,2.83
2017-10-11T12:51:24.629Z,2.20
2017-10-11T12:53:53.029Z,2.50
2017-10-11T12:56:21.423Z,1.67
2017-10-11T12:58:49.657Z,2.40
2017-10-11T13:01:18.107Z,2.87
2017-10-11T13:03:47.220Z,3.33
2017-10-11T13:06:15.478Z,2.67
2017-10-11T13:08:44.482Z,2.63
2017-10-11T13:11:12.802Z,2.90
2017-10-11T13:13:41.110Z,3.17
2017-10-11T13:16:10.150Z,2.33
2017-10-11T13:18:38.439Z,2.20
2017-10-11T13:21:06.673Z,2.20
2017-10-11T13:23:35.682Z,2.53
2017-10-11T13:26:04.392Z,3.90
2017-10-11T13:28:32.633Z,2.60
2017-10-11T13:31:00.869Z,2.40
2017-10-11T13:33:29.137Z,2.00
2017-10-11T13:35:57.374Z,1.90
2017-10-11T13:38:25.618Z,1.93
2017-10-11T13:40:53.891Z,2.30
2017-10-11T13:43:22.127Z,2.13
2017-10-11T13:45:50.362Z,1.83
2017-10-11T13:48:19.802Z,1.87
2017-10-11T13:50:48.042Z,2.00
2017-10-11T13:53:17.043Z,2.00
2017-10-11T13:55:45.305Z,2.53
2017-10-11T13:58:13.550Z,2.27
2017-10-11T14:00:41.785Z,2.27
2017-10-11T14:03:10.285Z,2.20
2017-10-11T14:05:38.886Z,2.47
2017-10-11T14:08:07.105Z,2.67
2017-10-11T14:10:35.825Z,2.50
2017-10-11T14:13:04.326Z,2.30
2017-10-11T14:15:32.554Z,2.33
2017-10-11T14:18:01.578Z,2.63
2017-10-11T14:20:29.821Z,2.60
2017-10-11T14:22:58.057Z,2.50
2017-10-11T14:25:26.327Z,2.63
2017-10-11T14:27:54.596Z,2.80
2017-10-11T14:30:22.985Z,2.57
2017-10-11T14:32:51.274Z,2.67
2017-10-11T14:35:19.527Z,2.70
2017-10-11T14:37:47.770Z,2.70
2017-10-11T14:40:16.138Z,2.77
2017-10-11T14:42:45.150Z,2.50
2017-10-11T14:45:13.393Z,2.50
2017-10-11T14:47:41.658Z,2.70
2017-10-11T14:50:10.019Z,2.80
2017-10-11T14:52:38.397Z,2.77
2017-10-11T14:55:07.103Z,2.77
2017-10-11T14:57:36.537Z,2.80
2017-10-11T15:00:04.761Z,2.50
2017-10-11T15:02:33.143Z,3.30
2017-10-11T15:05:02.756Z,2.03
2017-10-11T15:07:31.137Z,2.83
2017-10-11T15:09:59.384Z,2.60
2017-10-11T15:12:27.649Z,3.00
2017-10-11T15:14:55.878Z,3.40
2017-10-11T15:17:24.305Z,3.30
2017-10-11T15:19:52.562Z,2.53
2017-10-11T15:22:21.573Z,2.70
2017-10-11T15:24:49.842Z,2.70
2017-10-11T15:27:18.086Z,2.70
2017-10-11T15:29:46.332Z,2.20
2017-10-11T15:32:14.628Z,2.27
2017-10-11T15:34:42.867Z,2.43
2017-10-11T15:37:11.110Z,2.60
2017-10-11T15:39:39.638Z,2.63
2017-10-11T15:42:07.899Z,3.10
2017-10-11T15:44:36.145Z,2.93
2017-10-11T15:47:04.414Z,2.50
2017-10-11T15:49:33.434Z,2.57
2017-10-11T15:52:02.673Z,2.77
2017-10-11T15:54:31.072Z,2.40
2017-10-11T15:56:59.441Z,2.80
2017-10-11T15:59:27.809Z,2.90
2017-10-11T16:01:56.286Z,2.60
2017-10-11T16:04:24.526Z,2.57
2017-10-11T16:06:52.766Z,2.73
2017-10-11T16:09:21.033Z,2.27
2017-10-11T16:11:49.278Z,3.73
2017-10-11T16:14:17.510Z,3.90
2017-10-11T16:16:45.789Z,2.80
2017-10-11T16:19:14.789Z,2.63
2017-10-11T16:21:43.038Z,2.90
2017-10-11T16:24:11.681Z,2.77
2017-10-11T16:26:39.925Z,2.53
2017-10-11T16:29:08.165Z,2.63
2017-10-11T16:31:36.513Z,3.70
2017-10-11T16:34:04.756Z,2.63
2017-10-11T16:36:33.206Z,3.20
2017-10-11T16:39:01.477Z,2.90
2017-10-11T16:41:29.718Z,3.03
2017-10-11T16:43:58.021Z,2.47
2017-10-11T16:46:26.775Z,2.80
2017-10-11T16:48:55.029Z,2.87
2017-10-11T16:51:24.038Z,3.10
2017-10-11T16:53:52.337Z,2.60
2017-10-11T16:56:20.585Z,2.63
2017-10-11T16:58:48.827Z,2.80
2017-10-11T17:01:17.085Z,3.60
2017-10-11T17:03:45.329Z,2.80
2017-10-11T17:06:13.568Z,3.13
2017-10-11T17:08:42.501Z,3.43
2017-10-11T17:11:10.740Z,2.70
2017-10-11T17:13:39.749Z,2.30
2017-10-11T17:16:08.216Z,2.57
2017-10-11T17:18:36.500Z,2.40
2017-10-11T17:21:04.721Z,3.33
2017-10-11T17:23:32.993Z,1.97
2017-10-11T17:26:01.225Z,2.10
2017-10-11T17:28:29.465Z,2.70
2017-10-11T17:30:58.225Z,2.50
2017-10-11T17:33:26.465Z,2.53
2017-10-11T17:35:55.472Z,2.90
2017-10-11T17:38:24.293Z,3.30
2017-10-11T17:40:52.585Z,3.30
2017-10-11T17:43:20.846Z,3.40
2017-10-11T17:45:49.126Z,3.43
2017-10-11T17:48:17.360Z,3.53
2017-10-11T17:50:46.369Z,3.07
2017-10-11T17:53:14.997Z,3.00
2017-10-11T17:55:43.379Z,2.57
2017-10-11T17:58:11.606Z,3.17
2017-10-11T18:00:39.865Z,3.00
2017-10-11T18:03:08.879Z,2.80
2017-10-11T18:05:37.113Z,3.00
2017-10-11T18:08:05.374Z,3.30
2017-10-11T18:10:33.960Z,3.63
2017-10-11T18:13:02.173Z,4.50
2017-10-11T18:15:30.621Z,4.23
2017-10-11T18:17:58.873Z,4.73
2017-10-11T18:20:27.122Z,4.33
2017-10-11T18:22:55.381Z,4.73
2017-10-11T18:25:24.402Z,4.47
2017-10-11T18:27:52.642Z,5.37
2017-10-11T18:30:20.909Z,4.80
2017-10-11T18:32:49.145Z,4.80
2017-10-11T18:35:18.465Z,4.27
2017-10-11T18:37:46.818Z,5.20
2017-10-11T18:40:15.058Z,4.50
2017-10-11T18:42:43.293Z,4.50
2017-10-11T18:45:11.878Z,4.50
2017-10-11T18:47:40.094Z,5.00
2017-10-11T18:50:09.098Z,4.70
2017-10-11T18:52:37.369Z,4.77
2017-10-11T18:55:07.342Z,4.77
2017-10-11T18:57:35.582Z,4.80
2017-10-11T19:00:03.898Z,4.83
2017-10-11T19:02:32.134Z,4.53
2017-10-11T19:05:00.380Z,4.77
2017-10-11T19:07:29.562Z,4.50
2017-10-11T19:09:57.805Z,4.50
2017-10-11T19:12:26.337Z,4.80
2017-10-11T19:14:55.361Z,4.67
2017-10-11T19:17:23.602Z,5.00
2017-10-11T19:19:52.063Z,4.90
2017-10-11T19:22:20.418Z,11.40
2017-10-11T19:24:48.670Z,5.50
2017-10-11T19:27:16.913Z,6.47
2017-10-11T19:29:45.948Z,5.33
2017-10-11T19:32:14.185Z,4.30
2017-10-11T19:34:42.429Z,5.10
2017-10-11T19:37:10.686Z,5.20
2017-10-11T19:39:38.926Z,4.63
2017-10-11T19:42:07.928Z,5.20
2017-10-11T19:44:36.270Z,5.17
2017-10-11T19:47:04.513Z,5.30
2017-10-11T19:49:32.761Z,4.90
2017-10-11T19:52:01.790Z,6.00
2017-10-11T19:54:30.045Z,5.60
2017-10-11T19:56:58.365Z,5.73
2017-10-11T19:59:26.621Z,5.97
2017-10-11T20:01:54.869Z,6.20
2017-10-11T20:04:23.122Z,6.40
2017-10-11T20:06:51.649Z,5.20
2017-10-11T20:09:19.902Z,6.90
2017-10-11T20:11:48.139Z,5.80
2017-10-11T20:14:16.771Z,5.67
2017-10-11T20:16:45.013Z,6.43
2017-10-11T20:19:13.258Z,6.20
2017-10-11T20:21:41.517Z,5.73
2017-10-11T20:24:09.766Z,11.20
2017-10-11T20:26:38.017Z,10.00
2017-10-11T20:29:07.283Z,9.57
2017-10-11T20:31:35.525Z,6.80
2017-10-11T20:34:04.606Z,5.87
2017-10-11T20:36:32.870Z,5.60
2017-10-11T20:39:01.886Z,6.13
2017-10-11T20:41:30.137Z,6.90
2017-10-11T20:43:59.179Z,6.27
2017-10-11T20:46:27.422Z,6.00
2017-10-11T20:48:56.448Z,5.70
2017-10-11T20:51:25.237Z,6.20
2017-10-11T20:53:53.485Z,5.83
2017-10-11T20:56:22.490Z,5.70
2017-10-11T20:58:50.754Z,6.10
2017-10-11T21:01:18.993Z,6.33
2017-10-11T21:03:47.237Z,5.90
2017-10-11T21:06:15.542Z,6.87
2017-10-11T21:08:43.803Z,5.87
2017-10-11T21:11:12.042Z,5.90
2017-10-11T21:13:40.653Z,5.63
2017-10-11T21:16:09.030Z,5.93
2017-10-11T21:18:37.273Z,5.87
2017-10-11T21:21:06.315Z,5.90
2017-10-11T21:23:34.554Z,5.90
2017-10-11T21:26:02.819Z,5.83
2017-10-11T21:28:31.841Z,6.17
2017-10-11T21:31:00.082Z,6.60
2017-10-11T21:33:28.319Z,6.20
2017-10-11T21:35:56.914Z,6.13
2017-10-11T21:38:25.281Z,6.40
2017-10-11T21:40:53.521Z,6.47
2017-10-11T21:43:21.789Z,6.00
2017-10-11T21:45:50.032Z,5.97
2017-10-11T21:48:18.276Z,6.17
2017-10-11T21:50:47.522Z,6.70
2017-10-11T21:53:16.533Z,6.30
2017-10-11T21:55:44.777Z,6.10
2017-10-11T21:58:13.630Z,6.03
2017-10-11T22:00:41.873Z,7.27
2017-10-11T22:03:10.878Z,5.90
2017-10-11T22:05:39.686Z,5.70
2017-10-11T22:08:07.923Z,5.40
2017-10-11T22:10:36.404Z,6.17
2017-10-11T22:13:05.426Z,6.00
2017-10-11T22:15:33.661Z,6.27
2017-10-11T22:18:02.141Z,5.80
2017-10-11T22:20:30.574Z,6.13
2017-10-11T22:22:58.819Z,6.07
2017-10-11T22:25:27.829Z,5.83
2017-10-11T22:27:56.094Z,5.37
2017-10-11T22:30:24.334Z,6.50
2017-10-11T22:32:52.574Z,6.07
2017-10-11T22:35:20.834Z,6.00
2017-10-11T22:37:49.077Z,6.47
2017-10-11T22:40:17.320Z,6.00
2017-10-11T22:42:45.675Z,6.07
2017-10-11T22:45:13.913Z,5.87
2017-10-11T22:47:42.158Z,6.40
2017-10-11T22:50:10.634Z,5.97
2017-10-11T22:52:38.856Z,5.50
2017-10-11T22:55:07.873Z,6.00
2017-10-11T22:57:36.137Z,5.90
2017-10-11T23:00:04.576Z,6.20
2017-10-11T23:02:32.802Z,5.50
2017-10-11T23:05:01.318Z,5.70
2017-10-11T23:07:29.553Z,5.27
2017-10-11T23:09:57.796Z,5.80
2017-10-11T23:12:26.062Z,5.97
2017-10-11T23:14:54.305Z,6.13
2017-10-11T23:17:22.550Z,5.80
2017-10-11T23:19:51.592Z,5.80
2017-10-11T23:22:19.838Z,6.10
2017-10-11T23:24:48.082Z,6.03
2017-10-11T23:27:17.438Z,6.50
2017-10-11T23:29:45.690Z,5.83
2017-10-11T23:32:14.109Z,6.67
2017-10-11T23:34:42.365Z,6.73
2017-10-11T23:37:10.605Z,6.37
2017-10-11T23:39:39.613Z,6.03
2017-10-11T23:42:07.963Z,7.43
2017-10-11T23:44:36.970Z,6.20
2017-10-11T23:47:05.980Z,6.83
2017-10-11T23:49:34.681Z,7.17
2017-10-11T23:52:02.918Z,6.27
2017-10-11T23:54:31.158Z,6.20
2017-10-11T23:56:59.421Z,6.30
2017-10-11T23:59:27.665Z,7.20
